Time;durP1;ratioP1;P1;durP2;ratioP2;P2;SDS_P1;SDS_P2;PMS_P1;PMS_P2;Temp;Humidity;BMP_temperature;BMP_pressure;BME280_temperature;BME280_humidity;BME280_pressure;Samples;Min_cycle;Max_cycle;Signal;HPM_P1;HPM_P2
2024/02/09 00:01:12;;;;;;;5.27;3.17;;;10.20;99.90;;;;;;5030297;28;21029;-68
2024/02/09 00:03:38;;;;;;;8.03;3.53;;;10.20;99.90;;;;;;5031011;28;20421;-67
2024/02/09 00:06:06;;;;;;;4.90;3.53;;;10.20;99.90;;;;;;5029576;28;20448;-68
2024/02/09 00:08:31;;;;;;;6.90;3.00;;;10.10;99.90;;;;;;5030421;28;20799;-67
2024/02/09 00:10:57;;;;;;;6.73;3.43;;;10.10;99.90;;;;;;5030264;28;20432;-69
2024/02/09 00:13:23;;;;;;;8.30;3.00;;;10.10;99.90;;;;;;5029761;28;20639;-67
2024/02/09 00:15:49;;;;;;;7.47;3.60;;;10.20;99.90;;;;;;5030225;28;20638;-68
2024/02/09 00:18:18;;;;;;;10.70;3.70;;;10.10;99.90;;;;;;5030442;28;20208;-66
2024/02/09 00:20:45;;;;;;;9.63;3.40;;;10.10;99.90;;;;;;5030450;28;20325;-68
2024/02/09 00:23:14;;;;;;;7.67;3.60;;;10.00;99.90;;;;;;5030442;28;20429;-68
2024/02/09 00:25:41;;;;;;;4.93;2.80;;;10.00;99.90;;;;;;5030738;28;20476;-67
2024/02/09 00:28:11;;;;;;;10.60;4.20;;;10.00;99.90;;;;;;5029161;28;20954;-67
2024/02/09 00:30:41;;;;;;;7.87;4.13;;;10.00;99.90;;;;;;5029812;28;20457;-65
2024/02/09 00:33:09;;;;;;;7.00;3.60;;;10.00;99.90;;;;;;5030598;28;20432;-69
2024/02/09 00:35:36;;;;;;;6.70;3.33;;;9.90;99.90;;;;;;5029503;28;20432;-67
2024/02/09 00:38:02;;;;;;;7.10;3.70;;;10.00;99.90;;;;;;5029083;28;20476;-66
2024/02/09 00:40:32;;;;;;;11.63;4.57;;;10.10;99.90;;;;;;5030027;28;20469;-65
2024/02/09 00:43:01;;;;;;;8.10;3.50;;;10.10;99.90;;;;;;5030010;28;20424;-69
2024/02/09 00:45:27;;;;;;;7.93;3.90;;;10.10;99.90;;;;;;5029540;28;20537;-69
2024/02/09 00:47:55;;;;;;;12.03;4.60;;;10.20;99.90;;;;;;5028560;28;20437;-69
2024/02/09 00:50:21;;;;;;;8.60;5.10;;;10.20;99.90;;;;;;5028921;28;20437;-65
2024/02/09 00:52:53;;;;;;;10.03;3.70;;;10.20;99.90;;;;;;5031673;28;20429;-66
2024/02/09 00:55:19;;;;;;;9.67;3.73;;;10.20;99.90;;;;;;5030453;28;21148;-68
2024/02/09 00:57:46;;;;;;;6.97;3.70;;;10.20;99.90;;;;;;5029262;28;20433;-68
2024/02/09 01:00:13;;;;;;;8.40;4.63;;;10.20;99.90;;;;;;5030184;28;20465;-68
2024/02/09 01:02:39;;;;;;;8.27;3.53;;;10.20;99.90;;;;;;5031141;28;20429;-64
2024/02/09 01:05:06;;;;;;;10.00;3.70;;;10.10;99.90;;;;;;5030009;28;20429;-66
2024/02/09 01:07:33;;;;;;;11.60;5.90;;;10.20;99.90;;;;;;5029477;28;20440;-68
2024/02/09 01:09:59;;;;;;;8.70;3.60;;;10.20;99.90;;;;;;5030031;28;20425;-66
2024/02/09 02:45:27;;;;;;;12.27;3.67;;;10.00;99.90;;;;;;5031500;28;20447;-69
2024/02/09 03:04:33;;;;;;;5.97;3.40;;;10.00;99.90;;;;;;5032661;28;20437;-70
2024/02/09 03:06:59;;;;;;;5.30;3.43;;;10.00;99.90;;;;;;5032797;28;20434;-71
2024/02/09 03:09:24;;;;;;;8.50;3.57;;;10.00;99.90;;;;;;5032835;28;21288;-70
2024/02/09 03:11:50;;;;;;;8.20;3.40;;;10.10;99.90;;;;;;5032054;28;20269;-70
2024/02/09 03:14:16;;;;;;;6.13;3.23;;;10.00;99.90;;;;;;5033176;28;20253;-67
2024/02/09 03:16:41;;;;;;;6.90;3.20;;;10.10;99.90;;;;;;5031657;28;21132;-72
2024/02/09 03:19:08;;;;;;;5.77;3.47;;;10.10;99.90;;;;;;5033111;28;20196;-68
2024/02/09 03:21:36;;;;;;;7.17;3.60;;;10.10;99.90;;;;;;5031843;28;20225;-67
2024/02/09 03:24:02;;;;;;;6.33;3.10;;;10.00;99.90;;;;;;5033040;28;20451;-71
2024/02/09 03:26:28;;;;;;;6.90;3.27;;;10.00;99.90;;;;;;5031850;28;20432;-69
2024/02/09 03:28:55;;;;;;;9.17;3.20;;;10.00;99.90;;;;;;5031351;28;20293;-67
2024/02/09 03:31:22;;;;;;;7.43;3.27;;;10.00;99.90;;;;;;5030350;28;20226;-66
2024/02/09 03:33:49;;;;;;;10.60;3.93;;;10.00;99.90;;;;;;5032596;28;20437;-69
2024/02/09 03:36:20;;;;;;;9.90;3.60;;;10.00;99.90;;;;;;5031834;28;20444;-67
2024/02/09 03:38:47;;;;;;;7.10;3.50;;;10.00;99.90;;;;;;5031347;28;20436;-68
2024/02/09 03:41:13;;;;;;;10.87;3.63;;;10.00;99.90;;;;;;5032220;28;20479;-67
2024/02/09 03:43:39;;;;;;;5.33;3.30;;;9.90;99.90;;;;;;5032230;28;20433;-69
2024/02/09 03:46:05;;;;;;;8.90;3.47;;;9.90;99.90;;;;;;5031597;28;20703;-67
2024/02/09 03:48:34;;;;;;;6.43;3.30;;;10.00;99.90;;;;;;5031546;28;20197;-68
2024/02/09 03:51:01;;;;;;;7.43;3.70;;;10.00;99.90;;;;;;5032225;28;20448;-71
2024/02/09 03:53:30;;;;;;;4.63;3.43;;;10.00;99.90;;;;;;5032104;28;20444;-68
2024/02/09 03:55:56;;;;;;;8.47;3.30;;;10.00;99.90;;;;;;5030810;28;20993;-68
2024/02/09 03:58:21;;;;;;;6.57;3.50;;;10.00;99.90;;;;;;5032378;28;20429;-66
2024/02/09 04:00:47;;;;;;;4.47;3.07;;;9.90;99.90;;;;;;5031409;28;20935;-67
2024/02/09 04:03:15;;;;;;;4.17;2.87;;;9.90;99.90;;;;;;5032368;28;20194;-69
2024/02/09 04:05:41;;;;;;;4.80;2.90;;;9.90;99.90;;;;;;5030664;28;20543;-69
2024/02/09 04:08:07;;;;;;;11.53;3.50;;;9.90;99.90;;;;;;5032088;28;20431;-68
2024/02/09 04:10:32;;;;;;;5.90;3.13;;;9.90;99.90;;;;;;5031610;28;20436;-68
2024/02/09 04:13:01;;;;;;;7.00;3.00;;;10.00;99.90;;;;;;5030901;28;20188;-67
2024/02/09 04:15:28;;;;;;;6.27;3.40;;;10.00;99.90;;;;;;5030950;28;20185;-68
2024/02/09 04:17:54;;;;;;;7.50;3.10;;;10.00;99.90;;;;;;5030744;28;20440;-69
2024/02/09 04:20:19;;;;;;;6.67;2.97;;;10.00;99.90;;;;;;5031629;28;20484;-69
2024/02/09 04:22:45;;;;;;;5.07;2.77;;;9.90;99.90;;;;;;5030988;28;20944;-68
2024/02/09 04:25:11;;;;;;;5.20;2.73;;;9.90;99.90;;;;;;5031277;28;20220;-69
2024/02/09 04:27:37;;;;;;;6.40;2.40;;;9.90;99.90;;;;;;5029316;28;20217;-66
2024/02/09 04:30:03;;;;;;;6.00;2.80;;;9.90;99.90;;;;;;5031803;28;20194;-69
2024/02/09 04:32:29;;;;;;;7.17;2.60;;;9.90;99.90;;;;;;5031414;28;20435;-68
2024/02/09 04:34:55;;;;;;;5.23;2.60;;;9.90;99.90;;;;;;5030821;28;20430;-69
2024/02/09 04:37:21;;;;;;;3.53;2.43;;;9.90;99.90;;;;;;5030318;28;20479;-68
2024/02/09 04:39:50;;;;;;;4.97;2.53;;;9.90;99.90;;;;;;5030815;28;20181;-67
2024/02/09 04:42:15;;;;;;;5.20;2.20;;;10.00;99.90;;;;;;5030704;28;20461;-65
2024/02/09 04:44:42;;;;;;;2.47;2.00;;;10.00;99.90;;;;;;5030450;28;20597;-69
2024/02/09 04:47:08;;;;;;;3.90;2.57;;;10.00;99.90;;;;;;5030518;28;20213;-68
2024/02/09 04:49:34;;;;;;;2.97;2.53;;;10.00;99.90;;;;;;5030896;28;20425;-67
2024/02/09 04:52:00;;;;;;;5.20;2.20;;;10.00;99.90;;;;;;5029364;28;20352;-68
2024/02/09 04:54:26;;;;;;;3.03;2.07;;;10.00;99.90;;;;;;5031089;28;20463;-67
2024/02/09 04:56:53;;;;;;;2.33;1.90;;;10.00;99.90;;;;;;5029266;28;20433;-67
2024/02/09 04:59:19;;;;;;;8.20;2.00;;;10.00;99.90;;;;;;5031223;28;20177;-67
2024/02/09 05:01:44;;;;;;;5.20;2.10;;;10.00;99.90;;;;;;5029919;28;20468;-68
2024/02/09 05:04:12;;;;;;;4.60;1.80;;;10.00;99.90;;;;;;5031120;28;20221;-67
2024/02/09 05:06:38;;;;;;;2.27;1.77;;;10.00;99.90;;;;;;5029783;28;20184;-64
2024/02/09 05:09:06;;;;;;;2.83;1.90;;;10.00;99.90;;;;;;5030688;28;20499;-70
2024/02/09 05:11:34;;;;;;;3.70;1.70;;;10.00;99.90;;;;;;5029963;28;20524;-70
2024/02/09 05:14:00;;;;;;;2.87;1.40;;;10.00;99.90;;;;;;5030888;28;21205;-69
2024/02/09 05:16:27;;;;;;;4.33;1.80;;;10.00;99.90;;;;;;5030110;28;20832;-64
2024/02/09 05:18:53;;;;;;;2.73;1.53;;;10.00;99.90;;;;;;5029111;28;20441;-67
2024/02/09 05:21:19;;;;;;;1.63;1.43;;;10.00;99.90;;;;;;5030192;28;20483;-66
2024/02/09 05:23:45;;;;;;;3.10;1.70;;;10.00;99.90;;;;;;5030847;28;20977;-69
2024/02/09 05:26:12;;;;;;;5.20;1.60;;;10.10;99.90;;;;;;5028907;28;20437;-65
2024/02/09 05:28:40;;;;;;;3.30;1.97;;;10.00;99.90;;;;;;5029767;28;20185;-66
2024/02/09 05:31:12;;;;;;;2.33;1.90;;;10.00;99.90;;;;;;5030837;28;21527;-66
2024/02/09 05:33:38;;;;;;;1.83;1.67;;;10.00;99.90;;;;;;5030340;28;20427;-69
2024/02/09 05:36:04;;;;;;;2.50;1.70;;;10.00;99.90;;;;;;5030144;28;20929;-69
2024/02/09 05:38:31;;;;;;;4.30;1.57;;;10.00;99.90;;;;;;5031039;28;20190;-65
2024/02/09 05:40:57;;;;;;;2.60;1.67;;;10.00;99.90;;;;;;5029329;28;20473;-67
2024/02/09 05:43:23;;;;;;;2.20;1.50;;;10.00;99.90;;;;;;5030966;28;20439;-71
2024/02/09 05:45:48;;;;;;;2.57;1.63;;;10.00;99.90;;;;;;5023933;28;20251;-65
2024/02/09 05:48:15;;;;;;;2.13;1.37;;;10.00;99.90;;;;;;5027289;28;20213;-65
2024/02/09 05:50:41;;;;;;;2.43;1.47;;;10.00;99.90;;;;;;5027923;28;20178;-67
2024/02/09 05:53:07;;;;;;;1.47;1.20;;;10.00;99.90;;;;;;5028389;28;20505;-67
2024/02/09 05:55:38;;;;;;;1.87;1.60;;;10.00;99.90;;;;;;5026667;28;20437;-69
2024/02/09 05:58:04;;;;;;;2.10;1.53;;;10.00;99.90;;;;;;5027790;28;20439;-69
2024/02/09 06:00:30;;;;;;;4.07;1.40;;;10.10;99.90;;;;;;5025878;28;20480;-69
2024/02/09 06:02:56;;;;;;;2.13;1.37;;;10.00;99.90;;;;;;5028706;28;20186;-66
2024/02/09 06:05:22;;;;;;;2.67;1.60;;;10.00;99.90;;;;;;5028950;28;20941;-67
2024/02/09 06:07:48;;;;;;;2.33;1.37;;;10.00;99.90;;;;;;5030287;28;20429;-69
2024/02/09 06:10:14;;;;;;;2.57;1.77;;;10.10;99.90;;;;;;5029247;28;20432;-66
2024/02/09 06:12:43;;;;;;;4.50;1.63;;;10.10;99.90;;;;;;5030933;28;20535;-68
2024/02/09 06:15:10;;;;;;;1.83;1.33;;;10.10;99.90;;;;;;5029478;28;20931;-68
2024/02/09 06:17:38;;;;;;;2.17;1.17;;;10.00;99.90;;;;;;5028037;28;20820;-67
2024/02/09 06:20:08;;;;;;;1.90;1.30;;;10.00;99.90;;;;;;5027896;28;20532;-63
2024/02/09 06:22:35;;;;;;;2.20;1.33;;;10.00;99.90;;;;;;5029612;28;20429;-67
2024/02/09 06:25:01;;;;;;;1.70;1.10;;;10.00;99.90;;;;;;5029189;28;20429;-66
2024/02/09 06:27:27;;;;;;;1.33;1.10;;;10.00;99.90;;;;;;5029096;28;20480;-68
2024/02/09 06:29:54;;;;;;;1.53;1.23;;;9.90;99.90;;;;;;5028339;28;20273;-72
2024/02/09 06:32:23;;;;;;;2.50;1.43;;;10.00;99.90;;;;;;5029124;28;20486;-67
2024/02/09 06:34:52;;;;;;;2.27;1.67;;;10.00;99.90;;;;;;5030038;28;20444;-68
2024/02/09 06:37:18;;;;;;;3.20;1.40;;;10.00;99.90;;;;;;5028129;28;20448;-68
2024/02/09 06:39:47;;;;;;;2.27;1.30;;;10.00;99.90;;;;;;5030427;28;20853;-66
2024/02/09 06:42:13;;;;;;;2.20;1.50;;;10.00;99.90;;;;;;5028077;28;20435;-66
2024/02/09 06:44:43;;;;;;;1.30;1.13;;;10.00;99.90;;;;;;5027787;28;20432;-67
2024/02/09 06:47:13;;;;;;;2.60;1.20;;;10.00;99.90;;;;;;5026822;28;20332;-66
2024/02/09 06:49:46;;;;;;;1.67;1.40;;;10.00;99.90;;;;;;5061690;28;20598;-66
2024/02/09 06:52:12;;;;;;;1.47;1.37;;;10.00;99.90;;;;;;5027228;28;20445;-66
2024/02/09 06:54:39;;;;;;;2.00;1.40;;;10.00;99.90;;;;;;5029706;28;20433;-68
2024/02/09 06:57:06;;;;;;;2.77;1.60;;;10.10;99.90;;;;;;5028804;28;20766;-69
2024/02/09 06:59:32;;;;;;;4.63;1.30;;;10.10;99.90;;;;;;5029449;28;20498;-69
2024/02/09 07:02:04;;;;;;;1.80;1.60;;;10.10;99.90;;;;;;5028772;28;20487;-70
2024/02/09 07:04:30;;;;;;;1.33;1.20;;;10.10;99.90;;;;;;5024454;28;20455;-66
2024/02/09 07:06:56;;;;;;;3.17;1.20;;;10.10;99.90;;;;;;5031221;28;20827;-65
2024/02/09 07:09:21;;;;;;;1.40;1.30;;;10.10;99.90;;;;;;5030200;28;20186;-69
2024/02/09 07:11:50;;;;;;;2.40;1.33;;;10.10;99.90;;;;;;5031833;28;20190;-66
2024/02/09 07:14:17;;;;;;;2.20;1.20;;;10.10;99.90;;;;;;5029761;28;20276;-68
2024/02/09 07:16:46;;;;;;;3.20;1.23;;;10.10;99.90;;;;;;5028327;28;20457;-67
2024/02/09 07:19:12;;;;;;;3.87;1.40;;;10.10;99.90;;;;;;5027638;28;20460;-69
2024/02/09 07:21:39;;;;;;;2.00;1.10;;;10.10;99.90;;;;;;5031338;28;21025;-67
2024/02/09 07:24:05;;;;;;;1.23;1.00;;;10.10;99.90;;;;;;5031979;28;20435;-67
2024/02/09 07:26:31;;;;;;;1.40;1.27;;;10.00;99.90;;;;;;5030250;28;21094;-68
2024/02/09 07:28:57;;;;;;;1.80;1.13;;;10.00;99.90;;;;;;5029531;28;20447;-69
2024/02/09 07:31:23;;;;;;;1.50;1.03;;;10.10;99.90;;;;;;5027978;28;20903;-64
2024/02/09 07:33:50;;;;;;;3.23;1.50;;;10.10;99.90;;;;;;5030012;28;20183;-65
2024/02/09 07:36:16;;;;;;;1.47;1.20;;;10.10;99.90;;;;;;5029406;28;20491;-65
2024/02/09 07:38:42;;;;;;;3.83;1.70;;;10.10;99.90;;;;;;5033339;28;20436;-66
2024/02/09 07:41:12;;;;;;;2.30;1.57;;;10.10;99.90;;;;;;5031177;28;20660;-64
2024/02/09 07:43:38;;;;;;;2.50;1.20;;;10.10;99.90;;;;;;5032602;28;20529;-67
2024/02/09 07:46:04;;;;;;;2.80;1.43;;;10.20;99.90;;;;;;5031253;28;20521;-69
2024/02/09 07:48:30;;;;;;;2.30;1.30;;;10.20;99.90;;;;;;5031195;28;21133;-69
2024/02/09 07:51:02;;;;;;;2.90;1.60;;;10.20;99.90;;;;;;5032161;28;20471;-69
2024/02/09 07:53:30;;;;;;;6.43;1.97;;;10.10;99.90;;;;;;5031347;28;20798;-68
2024/02/09 07:55:57;;;;;;;2.77;1.50;;;10.20;99.90;;;;;;5032172;28;20452;-66
2024/02/09 07:58:25;;;;;;;2.20;1.70;;;10.20;99.90;;;;;;5031959;28;20428;-70
2024/02/09 08:00:54;;;;;;;3.10;1.70;;;10.20;99.90;;;;;;5032456;28;20824;-71
2024/02/09 08:03:20;;;;;;;2.40;2.13;;;10.20;99.90;;;;;;5031888;28;20436;-71
2024/02/09 08:05:46;;;;;;;3.10;1.80;;;10.20;99.90;;;;;;5032462;28;20444;-70
2024/02/09 08:08:12;;;;;;;2.13;1.60;;;10.20;99.90;;;;;;5031457;28;20429;-68
2024/02/09 08:10:38;;;;;;;3.70;1.70;;;10.20;99.90;;;;;;5031593;28;20728;-67
2024/02/09 08:13:04;;;;;;;4.70;1.60;;;10.20;99.90;;;;;;5031584;28;20189;-66
2024/02/09 08:15:31;;;;;;;3.37;1.73;;;10.30;99.90;;;;;;5030782;28;20190;-68
2024/02/09 08:17:57;;;;;;;3.43;1.70;;;10.30;99.90;;;;;;5031020;28;20463;-71
2024/02/09 08:20:23;;;;;;;2.13;1.33;;;10.40;99.90;;;;;;5030150;28;20583;-65
2024/02/09 08:22:50;;;;;;;3.80;1.67;;;10.40;99.90;;;;;;5030652;28;20429;-68
2024/02/09 08:25:16;;;;;;;3.43;2.23;;;10.40;99.90;;;;;;5030199;28;20440;-68
2024/02/09 08:27:42;;;;;;;3.30;1.50;;;10.40;99.90;;;;;;5029311;28;20464;-66
2024/02/09 08:30:09;;;;;;;4.33;1.70;;;10.40;99.90;;;;;;5031735;28;20542;-69
2024/02/09 08:32:36;;;;;;;4.60;1.93;;;10.40;99.90;;;;;;5030178;28;20189;-70
2024/02/09 08:35:03;;;;;;;3.90;1.77;;;10.40;99.90;;;;;;5031832;28;21012;-66
2024/02/09 08:37:29;;;;;;;3.10;1.60;;;10.40;99.90;;;;;;5029841;28;20429;-66
2024/02/09 08:39:59;;;;;;;3.57;1.80;;;10.50;99.90;;;;;;5030515;28;20439;-69
2024/02/09 08:42:26;;;;;;;4.17;1.97;;;10.40;99.90;;;;;;5029818;28;20429;-66
2024/02/09 08:44:53;;;;;;;3.13;2.10;;;10.40;99.90;;;;;;5031477;28;20432;-67
2024/02/09 08:47:21;;;;;;;2.90;2.10;;;10.50;99.90;;;;;;5031210;28;20452;-69
2024/02/09 08:49:47;;;;;;;4.17;2.60;;;10.50;99.90;;;;;;5031346;28;20428;-65
2024/02/09 08:52:13;;;;;;;3.20;1.90;;;10.50;99.90;;;;;;5030802;28;20433;-69
2024/02/09 08:54:39;;;;;;;3.97;2.00;;;10.50;99.90;;;;;;5030059;28;20429;-70
2024/02/09 08:57:04;;;;;;;4.63;1.80;;;10.50;99.90;;;;;;5030955;28;20190;-67
2024/02/09 08:59:34;;;;;;;2.50;2.00;;;10.40;99.90;;;;;;5030668;28;20192;-65
2024/02/09 09:02:00;;;;;;;4.67;2.10;;;10.40;99.90;;;;;;5029861;28;20645;-70
2024/02/09 09:04:27;;;;;;;3.70;2.30;;;10.40;99.90;;;;;;5030730;28;20436;-67
2024/02/09 09:06:53;;;;;;;4.00;2.40;;;10.40;99.90;;;;;;5029576;28;20296;-70
2024/02/09 09:09:19;;;;;;;2.77;2.20;;;10.50;99.90;;;;;;5030718;28;20895;-67
2024/02/09 09:11:44;;;;;;;2.13;1.70;;;10.50;99.90;;;;;;5029080;28;20192;-66
2024/02/09 09:14:11;;;;;;;3.10;1.70;;;10.50;99.90;;;;;;5029795;28;20316;-67
2024/02/09 09:16:39;;;;;;;2.30;1.80;;;10.50;99.90;;;;;;5028845;28;20181;-68
2024/02/09 09:19:08;;;;;;;2.60;2.10;;;10.50;99.90;;;;;;5029076;28;20436;-68
2024/02/09 09:21:37;;;;;;;5.53;2.57;;;10.50;99.90;;;;;;5026851;28;21237;-70
2024/02/09 09:24:06;;;;;;;2.87;1.80;;;10.50;99.90;;;;;;5029092;28;20999;-67
2024/02/09 09:26:31;;;;;;;2.73;2.10;;;10.60;99.90;;;;;;5027460;28;20429;-67
2024/02/09 09:28:57;;;;;;;5.10;2.30;;;10.60;99.90;;;;;;5026644;28;20779;-67
2024/02/09 09:31:25;;;;;;;7.40;2.13;;;10.60;99.90;;;;;;5029091;28;20179;-66
2024/02/09 09:33:54;;;;;;;4.63;2.33;;;10.60;99.90;;;;;;5029801;28;20433;-69
2024/02/09 09:36:21;;;;;;;3.40;1.73;;;10.70;99.90;;;;;;5029000;28;20426;-69
2024/02/09 09:38:46;;;;;;;2.07;1.87;;;10.70;99.90;;;;;;5029516;28;20503;-69
2024/02/09 09:41:12;;;;;;;3.37;1.77;;;10.70;99.90;;;;;;5029749;28;20492;-65
2024/02/09 09:43:39;;;;;;;3.30;1.93;;;10.70;99.90;;;;;;5029508;28;20276;-68
2024/02/09 09:46:08;;;;;;;2.40;1.93;;;10.80;99.90;;;;;;5028323;28;20549;-67
2024/02/09 09:48:37;;;;;;;2.93;1.83;;;10.80;99.90;;;;;;5027966;28;20502;-69
2024/02/09 09:51:07;;;;;;;2.87;2.27;;;10.80;99.90;;;;;;5029678;28;20437;-72
2024/02/09 09:53:40;;;;;;;3.53;2.07;;;10.90;99.90;;;;;;5029353;28;20448;-68
2024/02/09 09:56:06;;;;;;;6.57;2.07;;;10.90;99.90;;;;;;5029067;28;20444;-66
2024/02/09 09:58:35;;;;;;;4.43;1.83;;;11.00;99.90;;;;;;5029308;28;20434;-69
2024/02/09 10:01:08;;;;;;;2.13;1.77;;;11.00;99.90;;;;;;5028465;28;21329;-65
2024/02/09 10:03:38;;;;;;;4.47;1.80;;;11.10;99.90;;;;;;5044897;28;20434;-65
2024/02/09 10:06:04;;;;;;;2.13;1.93;;;11.20;99.90;;;;;;5043840;28;20936;-68
2024/02/09 10:08:31;;;;;;;3.97;2.20;;;11.20;99.90;;;;;;5028983;28;20440;-68
2024/02/09 10:10:57;;;;;;;3.17;1.90;;;11.10;99.90;;;;;;5027743;28;20999;-70
2024/02/09 10:13:25;;;;;;;2.10;1.70;;;11.10;99.90;;;;;;5029626;28;20448;-65
2024/02/09 10:15:51;;;;;;;1.97;1.30;;;11.20;99.90;;;;;;5028214;28;20465;-69
2024/02/09 10:18:18;;;;;;;4.20;1.80;;;11.20;99.90;;;;;;5029707;28;20447;-67
2024/02/09 10:20:47;;;;;;;2.70;1.93;;;11.20;99.90;;;;;;5028731;28;20540;-67
2024/02/09 10:23:14;;;;;;;3.13;1.60;;;11.20;99.90;;;;;;5029801;28;20524;-67
2024/02/09 10:25:41;;;;;;;2.73;1.90;;;11.20;99.90;;;;;;5028353;28;20425;-66
2024/02/09 10:28:08;;;;;;;2.27;1.60;;;11.30;99.90;;;;;;5027704;28;20849;-70
2024/02/09 10:30:35;;;;;;;4.23;1.80;;;11.30;99.90;;;;;;5029141;28;20495;-67
2024/02/09 10:33:02;;;;;;;2.70;1.90;;;11.40;99.90;;;;;;5028692;28;20441;-70
2024/02/09 10:35:27;;;;;;;5.30;1.70;;;11.40;99.90;;;;;;5029223;28;20432;-68
2024/02/09 10:37:57;;;;;;;3.20;1.80;;;11.50;99.90;;;;;;5028946;28;21126;-64
2024/02/09 10:40:24;;;;;;;2.80;1.73;;;11.50;99.90;;;;;;5029662;28;20245;-66
2024/02/09 10:42:52;;;;;;;8.27;1.90;;;11.60;99.90;;;;;;5033186;28;20427;-67
2024/02/09 10:45:18;;;;;;;4.90;1.93;;;11.60;99.90;;;;;;5032636;28;21243;-66
2024/02/09 10:47:48;;;;;;;5.27;2.33;;;11.70;99.90;;;;;;5032689;28;20448;-68
2024/02/09 10:50:15;;;;;;;6.53;2.23;;;11.70;99.90;;;;;;5032753;28;20436;-66
2024/02/09 10:52:44;;;;;;;3.53;2.20;;;11.70;99.90;;;;;;5032574;28;20517;-66
2024/02/09 10:55:14;;;;;;;3.17;1.80;;;11.80;99.90;;;;;;5032826;28;20432;-69
2024/02/09 10:57:42;;;;;;;4.43;1.90;;;11.70;99.90;;;;;;5031652;28;20927;-68
2024/02/09 11:00:10;;;;;;;2.83;2.20;;;11.60;99.90;;;;;;5032800;28;20479;-67
2024/02/09 11:02:36;;;;;;;3.60;2.40;;;11.60;99.90;;;;;;5032246;28;20428;-68
2024/02/09 11:05:03;;;;;;;2.03;1.83;;;11.50;99.90;;;;;;5032395;28;20433;-66
2024/02/09 11:07:30;;;;;;;3.10;2.13;;;11.60;99.90;;;;;;5032874;28;21122;-71
2024/02/09 11:09:58;;;;;;;4.43;2.43;;;11.60;99.90;;;;;;5014591;28;20429;-67
2024/02/09 11:12:24;;;;;;;3.17;2.40;;;11.60;99.90;;;;;;5032356;28;20961;-64
2024/02/09 11:14:50;;;;;;;3.00;2.23;;;11.70;99.90;;;;;;5032828;28;20436;-68
2024/02/09 11:17:18;;;;;;;3.20;1.77;;;11.70;99.90;;;;;;5030936;28;20720;-68
2024/02/09 11:19:44;;;;;;;4.27;3.20;;;11.70;99.90;;;;;;5032728;28;20705;-68
2024/02/09 11:22:11;;;;;;;3.20;2.57;;;11.70;99.90;;;;;;5032239;28;20497;-67
2024/02/09 11:24:38;;;;;;;3.20;2.53;;;11.70;99.90;;;;;;5031947;28;20186;-70
2024/02/09 11:27:06;;;;;;;3.20;2.13;;;11.80;99.90;;;;;;5031295;28;20444;-71
2024/02/09 11:29:33;;;;;;;2.23;1.93;;;11.80;99.90;;;;;;5031132;28;20456;-66
2024/02/09 11:32:05;;;;;;;4.17;2.20;;;11.80;99.90;;;;;;5031931;28;20432;-65
2024/02/09 11:34:35;;;;;;;4.30;2.30;;;11.80;99.90;;;;;;5032551;28;21080;-69
2024/02/09 11:37:01;;;;;;;3.27;2.40;;;11.90;99.90;;;;;;5031186;28;20948;-66
2024/02/09 11:39:37;;;;;;;4.17;3.73;;;11.80;99.90;;;;;;5029562;28;21001;-68
2024/02/09 11:42:04;;;;;;;3.57;2.70;;;11.90;99.90;;;;;;5031552;28;20495;-67
2024/02/09 11:44:31;;;;;;;4.53;2.47;;;12.00;99.90;;;;;;5032356;28;20439;-67
2024/02/09 11:46:57;;;;;;;3.40;2.30;;;12.10;99.90;;;;;;5030972;28;20562;-68
2024/02/09 11:49:23;;;;;;;4.20;2.63;;;12.20;99.90;;;;;;5031478;28;20433;-67
2024/02/09 11:51:50;;;;;;;2.20;2.00;;;12.30;99.90;;;;;;5031464;28;20480;-66
2024/02/09 11:54:16;;;;;;;6.13;2.90;;;12.30;99.90;;;;;;5030628;28;20982;-69
2024/02/09 11:56:45;;;;;;;2.50;2.30;;;12.30;99.90;;;;;;5031605;28;20425;-67
2024/02/09 11:59:11;;;;;;;2.67;2.40;;;12.30;99.90;;;;;;5031080;28;20184;-71
2024/02/09 12:01:42;;;;;;;2.50;2.30;;;12.30;99.90;;;;;;5030935;28;20468;-71
2024/02/09 12:04:08;;;;;;;5.40;3.10;;;12.20;99.90;;;;;;5031019;28;20444;-69
2024/02/09 12:06:34;;;;;;;2.83;2.57;;;12.20;99.90;;;;;;5030969;28;20448;-68
2024/02/09 12:09:00;;;;;;;3.83;2.90;;;12.20;99.90;;;;;;5032103;28;20988;-64
2024/02/09 12:11:26;;;;;;;4.80;2.50;;;12.10;99.90;;;;;;5029570;28;20434;-67
2024/02/09 12:13:52;;;;;;;4.70;2.30;;;12.20;99.90;;;;;;5030888;28;20425;-68
2024/02/09 12:16:19;;;;;;;6.17;2.43;;;12.20;99.90;;;;;;5029431;28;20182;-68
2024/02/09 12:18:46;;;;;;;7.30;2.73;;;12.20;99.90;;;;;;5030576;28;20440;-69
2024/02/09 12:21:13;;;;;;;8.50;7.40;;;12.30;99.90;;;;;;5029836;28;20461;-67
2024/02/09 12:23:38;;;;;;;4.00;2.80;;;12.30;99.90;;;;;;5031387;28;20456;-69
2024/02/09 12:26:08;;;;;;;3.67;2.80;;;12.20;99.90;;;;;;5030788;28;20524;-69
2024/02/09 12:28:35;;;;;;;4.00;2.93;;;12.20;99.90;;;;;;5028088;28;20457;-66
2024/02/09 12:31:04;;;;;;;5.63;2.60;;;12.20;99.90;;;;;;5031401;28;20486;-66
2024/02/09 12:33:30;;;;;;;5.67;3.40;;;12.20;99.90;;;;;;5030638;28;20767;-66
2024/02/09 12:36:08;;;;;;;2.87;2.50;;;12.20;99.90;;;;;;5030833;28;20423;-68
2024/02/09 12:38:38;;;;;;;4.23;3.80;;;12.20;99.90;;;;;;5030011;28;21269;-69
2024/02/09 12:41:05;;;;;;;4.10;2.93;;;12.20;99.90;;;;;;5030802;28;20479;-68
2024/02/09 12:43:30;;;;;;;2.90;2.50;;;12.20;99.90;;;;;;5030673;28;20509;-66
2024/02/09 12:45:56;;;;;;;3.97;2.37;;;12.20;99.90;;;;;;5030430;28;20444;-66
2024/02/09 12:48:23;;;;;;;3.43;2.80;;;12.20;99.90;;;;;;5028811;28;20194;-66
2024/02/09 12:50:52;;;;;;;3.20;2.17;;;12.10;99.90;;;;;;5030567;28;20380;-68
2024/02/09 12:53:18;;;;;;;3.57;1.90;;;12.20;99.90;;;;;;5029362;28;20472;-69
2024/02/09 12:55:46;;;;;;;3.97;2.33;;;12.20;99.90;;;;;;5030231;28;20453;-68
2024/02/09 12:58:13;;;;;;;3.40;2.50;;;12.10;99.90;;;;;;5029975;28;20482;-68
2024/02/09 13:00:39;;;;;;;4.90;2.43;;;12.20;99.90;;;;;;5029084;28;20478;-65
2024/02/09 13:03:05;;;;;;;6.60;2.93;;;12.10;99.90;;;;;;5030580;28;20425;-68
2024/02/09 13:05:31;;;;;;;4.30;2.40;;;12.10;99.90;;;;;;5029872;28;20436;-69
2024/02/09 13:08:00;;;;;;;3.93;2.57;;;12.10;99.90;;;;;;5028928;28;20423;-70
2024/02/09 13:10:26;;;;;;;2.53;2.33;;;12.10;99.90;;;;;;5028866;28;20653;-70
2024/02/09 13:12:53;;;;;;;2.83;2.30;;;12.00;99.90;;;;;;5030103;28;20445;-69
2024/02/09 13:15:20;;;;;;;2.70;2.50;;;12.00;99.90;;;;;;5029273;28;20957;-66
2024/02/09 13:17:49;;;;;;;2.23;2.03;;;12.00;99.90;;;;;;5029635;28;20516;-70
2024/02/09 13:20:18;;;;;;;5.50;2.60;;;12.00;99.90;;;;;;5029366;28;20558;-67
2024/02/09 13:22:47;;;;;;;2.83;2.27;;;12.00;99.90;;;;;;5029487;28;20429;-69
2024/02/09 13:25:13;;;;;;;6.80;2.10;;;12.00;99.90;;;;;;5029689;28;20435;-72
2024/02/09 13:27:42;;;;;;;3.33;2.20;;;12.00;99.90;;;;;;5028186;28;20429;-69
2024/02/09 13:30:08;;;;;;;4.37;1.73;;;12.00;99.90;;;;;;5029734;28;20436;-69
2024/02/09 13:32:35;;;;;;;3.30;2.60;;;12.00;99.90;;;;;;5029237;28;20425;-66
2024/02/09 13:35:13;;;;;;;4.10;2.47;;;12.10;99.90;;;;;;5030265;28;20432;-72
2024/02/09 13:37:43;;;;;;;3.20;1.70;;;12.10;99.90;;;;;;5028032;28;20425;-66
2024/02/09 13:40:15;;;;;;;5.10;2.03;;;12.00;99.90;;;;;;5029379;28;20459;-66
2024/02/09 13:42:51;;;;;;;2.57;1.97;;;12.10;99.90;;;;;;5029320;28;20432;-70
2024/02/09 13:45:21;;;;;;;5.30;2.37;;;12.00;99.90;;;;;;5029049;28;21293;-64
2024/02/09 13:47:47;;;;;;;2.20;2.00;;;12.00;99.90;;;;;;5029525;28;20534;-70
2024/02/09 13:50:14;;;;;;;2.37;1.90;;;12.10;99.90;;;;;;5029208;28;20950;-67
2024/02/09 13:52:44;;;;;;;2.50;1.73;;;12.00;99.90;;;;;;5029428;28;21123;-69
2024/02/09 13:55:13;;;;;;;2.63;1.80;;;12.10;99.90;;;;;;5029481;28;20519;-66
2024/02/09 13:57:47;;;;;;;2.87;1.80;;;12.10;99.90;;;;;;5028129;28;20440;-69
2024/02/09 14:00:16;;;;;;;2.00;1.80;;;12.00;99.90;;;;;;5028627;28;20857;-70
2024/02/09 14:02:42;;;;;;;2.30;1.83;;;12.00;99.90;;;;;;5030176;28;20432;-67
2024/02/09 14:05:08;;;;;;;2.87;1.90;;;12.00;99.90;;;;;;5029310;28;20432;-69
2024/02/09 14:07:38;;;;;;;3.80;1.80;;;12.00;99.90;;;;;;5028906;28;20182;-66
2024/02/09 14:10:13;;;;;;;3.60;2.00;;;12.10;99.90;;;;;;5029220;28;20437;-70
2024/02/09 14:12:39;;;;;;;3.83;1.73;;;12.10;99.90;;;;;;5029029;28;20426;-67
2024/02/09 14:15:08;;;;;;;2.10;1.90;;;12.10;99.90;;;;;;5028952;28;20919;-67
2024/02/09 14:17:35;;;;;;;2.10;1.60;;;12.10;99.90;;;;;;5027845;28;20429;-68
2024/02/09 14:20:04;;;;;;;4.40;2.17;;;12.10;99.90;;;;;;5029843;28;20464;-71
2024/02/09 14:22:34;;;;;;;2.70;2.10;;;12.10;99.90;;;;;;5023679;28;20552;-67
2024/02/09 14:25:00;;;;;;;3.37;1.93;;;12.10;99.90;;;;;;5027095;28;20432;-69
2024/02/09 14:27:26;;;;;;;3.73;1.87;;;12.10;99.90;;;;;;5027480;28;20461;-67
2024/02/09 14:29:52;;;;;;;4.67;2.60;;;12.10;99.90;;;;;;5026809;28;20574;-66
2024/02/09 14:32:18;;;;;;;4.93;1.80;;;12.10;99.90;;;;;;5027709;28;21136;-66
2024/02/09 14:34:44;;;;;;;2.73;1.77;;;12.10;99.90;;;;;;5027704;28;20424;-69
2024/02/09 14:37:11;;;;;;;3.33;1.93;;;12.10;99.90;;;;;;5027590;28;20942;-69